createdAt,value
2022-12-18T00:02:40.299Z,15.65
2022-12-18T00:07:45.851Z,16.25
2022-12-18T00:12:49.957Z,25.33
2022-12-18T00:17:54.580Z,21.60
2022-12-18T00:22:59.932Z,19.75
2022-12-18T00:28:05.139Z,16.50
2022-12-18T00:33:11.722Z,19.67
2022-12-18T00:38:17.447Z,19.65
2022-12-18T00:43:21.481Z,29.63
2022-12-18T00:48:25.652Z,39.83
2022-12-18T00:53:31.106Z,38.35
2022-12-18T00:58:38.291Z,38.63
2022-12-18T01:03:42.837Z,35.63
2022-12-18T01:08:49.131Z,32.85
2022-12-18T01:13:54.708Z,45.97
2022-12-18T01:18:59.883Z,44.83
2022-12-18T01:24:08.427Z,35.72
2022-12-18T01:29:12.412Z,29.80
2022-12-18T01:34:16.908Z,33.22
2022-12-18T01:39:23.444Z,31.38
2022-12-18T01:44:57.478Z,27.73
2022-12-18T01:50:05.392Z,24.70
2022-12-18T01:55:12.586Z,22.17
2022-12-18T02:00:20.730Z,21.65
2022-12-18T02:05:39.253Z,19.73
2022-12-18T02:10:52.013Z,25.25
2022-12-18T02:16:12.556Z,23.55
2022-12-18T02:21:30.013Z,20.20
2022-12-18T02:26:40.597Z,18.50
2022-12-18T02:31:50.170Z,16.88
2022-12-18T02:42:08.979Z,15.55
2022-12-18T02:47:15.013Z,13.10
2022-12-18T02:52:27.763Z,11.32
2022-12-18T02:57:39.877Z,9.63
2022-12-18T03:02:49.869Z,9.13
2022-12-18T03:08:00.133Z,8.45
2022-12-18T03:13:14.299Z,10.38
2022-12-18T03:18:22.823Z,9.43
2022-12-18T03:23:31.960Z,8.60
2022-12-18T03:28:40.988Z,8.80
2022-12-18T03:33:49.874Z,8.60
2022-12-18T03:39:03.517Z,8.25
2022-12-18T03:44:16.903Z,9.00
2022-12-18T03:49:28.706Z,8.05
2022-12-18T03:54:36.764Z,7.55
2022-12-18T03:59:54.374Z,8.77
2022-12-18T04:05:07.185Z,8.38
2022-12-18T04:10:16.906Z,7.60
2022-12-18T04:15:27.976Z,8.48
2022-12-18T04:20:33.101Z,9.00
2022-12-18T04:25:37.391Z,6.85
2022-12-18T04:30:50.537Z,7.30
2022-12-18T04:35:54.822Z,7.22
2022-12-18T04:40:58.991Z,7.13
2022-12-18T04:46:07.416Z,7.18
2022-12-18T04:51:11.345Z,6.60
2022-12-18T04:56:17.790Z,7.35
2022-12-18T05:01:23.616Z,7.28
2022-12-18T05:06:28.097Z,7.35
2022-12-18T05:11:32.779Z,8.23
2022-12-18T05:16:38.313Z,8.15
2022-12-18T05:21:42.342Z,8.77
2022-12-18T05:26:46.604Z,9.63
2022-12-18T05:31:51.968Z,9.98
2022-12-18T05:36:56.029Z,10.57
2022-12-18T05:42:00.014Z,12.23
2022-12-18T05:47:05.934Z,11.20
2022-12-18T05:52:11.978Z,12.15
2022-12-18T05:57:16.103Z,13.23
2022-12-18T06:02:22.202Z,11.82
2022-12-18T06:07:26.483Z,10.75
2022-12-18T06:12:30.664Z,9.30
2022-12-18T06:17:36.945Z,9.35
2022-12-18T06:22:41.024Z,9.77
2022-12-18T06:27:47.848Z,9.30
2022-12-18T06:32:56.766Z,13.30
2022-12-18T06:38:03.350Z,15.27
2022-12-18T06:43:07.941Z,9.95
2022-12-18T06:48:13.738Z,8.48
2022-12-18T06:53:17.812Z,11.68
2022-12-18T06:58:23.352Z,13.00
2022-12-18T07:03:28.950Z,11.15
2022-12-18T07:08:33.577Z,13.00
2022-12-18T07:13:37.872Z,12.30
2022-12-18T07:18:43.716Z,13.30
2022-12-18T07:23:49.499Z,11.77
2022-12-18T07:28:58.651Z,11.05
2022-12-18T07:34:04.148Z,13.95
2022-12-18T07:39:09.664Z,14.43
2022-12-18T07:44:13.983Z,17.70
2022-12-18T07:49:19.570Z,14.40
2022-12-18T07:54:23.869Z,15.93
2022-12-18T07:59:28.447Z,9.82
2022-12-18T08:04:37.163Z,8.10
2022-12-18T08:09:41.190Z,12.70
2022-12-18T08:14:45.497Z,14.10
2022-12-18T08:19:53.150Z,11.70
2022-12-18T08:24:57.235Z,13.68
2022-12-18T08:30:01.461Z,13.70
2022-12-18T08:35:08.474Z,13.88
2022-12-18T08:40:14.233Z,15.50
2022-12-18T08:45:18.640Z,14.00
2022-12-18T08:50:24.312Z,14.07
2022-12-18T08:55:28.488Z,12.73
2022-12-18T09:00:35.608Z,11.10
2022-12-18T09:05:41.121Z,11.93
2022-12-18T09:10:46.811Z,12.57
2022-12-18T09:15:52.924Z,11.25
2022-12-18T09:21:10.808Z,12.48
2022-12-18T09:26:15.509Z,10.68
2022-12-18T09:31:27.749Z,12.10
2022-12-18T09:36:34.276Z,12.30
2022-12-18T09:41:55.465Z,15.02
2022-12-18T09:47:12.480Z,14.68
2022-12-18T09:52:28.595Z,10.40
2022-12-18T09:57:35.666Z,11.30
2022-12-18T10:02:39.966Z,11.27
2022-12-18T10:07:56.290Z,11.18
2022-12-18T10:13:11.951Z,11.32
2022-12-18T10:18:28.507Z,10.45
2022-12-18T10:23:47.831Z,10.35
2022-12-18T10:28:54.494Z,13.15
2022-12-18T10:34:00.239Z,12.23
2022-12-18T10:39:20.439Z,12.05
2022-12-18T10:44:31.637Z,11.75
2022-12-18T10:49:38.332Z,14.82
2022-12-18T10:54:50.468Z,14.88
2022-12-18T10:59:58.013Z,13.70
2022-12-18T11:05:27.962Z,12.10
2022-12-18T11:10:36.107Z,13.93
2022-12-18T11:15:43.805Z,12.63
2022-12-18T11:20:58.302Z,13.25
2022-12-18T11:26:07.100Z,12.32
2022-12-18T11:31:19.105Z,11.07
2022-12-18T11:36:24.900Z,11.40
2022-12-18T11:41:52.587Z,12.00
2022-12-18T11:47:02.603Z,10.80
2022-12-18T11:52:17.579Z,14.60
2022-12-18T11:57:35.952Z,14.68
2022-12-18T12:02:52.074Z,15.60
2022-12-18T12:08:04.267Z,11.52
2022-12-18T12:13:25.870Z,14.48
2022-12-18T12:18:40.491Z,14.07
2022-12-18T12:23:53.873Z,14.70
2022-12-18T12:29:20.978Z,16.85
2022-12-18T12:34:33.276Z,19.83
2022-12-18T12:39:40.013Z,16.95
2022-12-18T12:44:55.788Z,12.70
2022-12-18T12:50:02.522Z,15.05
2022-12-18T12:55:18.470Z,13.93
2022-12-18T13:00:26.915Z,12.90
2022-12-18T13:05:39.266Z,14.45
2022-12-18T13:10:44.279Z,14.27
2022-12-18T13:15:52.159Z,22.27
2022-12-18T13:21:06.236Z,15.38
2022-12-18T13:26:40.477Z,13.98
2022-12-18T13:32:02.868Z,15.55
2022-12-18T13:37:47.328Z,12.70
2022-12-18T13:43:09.218Z,12.70
2022-12-18T13:48:29.578Z,11.50
2022-12-18T13:53:41.957Z,18.27
2022-12-18T13:58:48.319Z,17.13
2022-12-18T14:04:10.484Z,15.65
2022-12-18T14:09:21.387Z,16.48
2022-12-18T14:14:32.383Z,17.70
2022-12-18T14:19:40.418Z,11.57
2022-12-18T14:24:44.598Z,14.35
2022-12-18T14:29:48.774Z,12.68
2022-12-18T14:34:56.415Z,17.67
2022-12-18T14:40:08.761Z,14.95
2022-12-18T14:45:43.059Z,14.85
2022-12-18T14:50:59.994Z,13.13
2022-12-18T14:56:05.918Z,15.63
2022-12-18T15:01:12.668Z,12.27
2022-12-18T15:06:30.128Z,13.70
2022-12-18T15:11:45.740Z,17.25
2022-12-18T15:16:54.272Z,21.10
2022-12-18T15:22:06.111Z,22.33
2022-12-18T15:27:24.646Z,21.85
2022-12-18T15:32:30.464Z,19.92
2022-12-18T15:37:45.122Z,22.05
2022-12-18T15:43:11.099Z,17.63
2022-12-18T15:48:24.495Z,12.40
2022-12-18T15:53:34.618Z,15.77
2022-12-18T15:58:39.509Z,13.70
2022-12-18T16:03:44.402Z,14.57
2022-12-18T16:08:50.913Z,19.83
2022-12-18T16:13:55.475Z,27.08
2022-12-18T16:19:00.803Z,27.77
2022-12-18T16:24:12.950Z,24.25
2022-12-18T16:29:17.575Z,19.50
2022-12-18T16:34:26.777Z,20.77
2022-12-18T16:39:35.732Z,34.10
2022-12-18T16:44:41.347Z,23.83
2022-12-18T16:49:47.135Z,22.33
2022-12-18T16:54:54.995Z,15.57
2022-12-18T17:00:04.664Z,13.77
2022-12-18T17:05:13.201Z,14.40
2022-12-18T17:10:19.119Z,14.07
2022-12-18T17:15:24.773Z,15.00
2022-12-18T17:20:29.355Z,12.95
2022-12-18T17:25:35.072Z,13.18
2022-12-18T17:30:42.379Z,12.68
2022-12-18T17:35:49.785Z,14.20
2022-12-18T17:41:01.695Z,13.02
2022-12-18T17:46:10.598Z,13.30
2022-12-18T17:51:19.571Z,18.88
2022-12-18T17:56:26.620Z,21.27
2022-12-18T18:01:32.722Z,31.02
2022-12-18T18:06:39.093Z,32.35
2022-12-18T18:12:02.294Z,21.38
2022-12-18T18:17:07.786Z,19.63
2022-12-18T18:22:13.457Z,21.70
2022-12-18T18:27:20.391Z,22.92
2022-12-18T18:32:24.729Z,27.95
2022-12-18T18:37:29.758Z,31.92
2022-12-18T18:42:35.793Z,27.70
2022-12-18T18:47:39.900Z,26.95
2022-12-18T18:52:44.668Z,23.25
2022-12-18T18:57:50.462Z,27.05
2022-12-18T19:03:00.346Z,25.23
2022-12-18T19:08:05.002Z,21.90
2022-12-18T19:13:24.570Z,23.80
2022-12-18T19:18:29.275Z,20.67
2022-12-18T19:23:34.945Z,25.40
2022-12-18T19:28:41.242Z,26.38
2022-12-18T19:33:48.686Z,21.38
2022-12-18T19:38:56.201Z,23.40
2022-12-18T19:44:07.748Z,18.58
2022-12-18T19:49:17.528Z,18.83
2022-12-18T19:54:22.719Z,16.98
2022-12-18T19:59:28.931Z,15.43
2022-12-18T20:04:33.510Z,17.15
2022-12-18T20:09:38.387Z,17.08
2022-12-18T20:14:44.137Z,17.92
2022-12-18T20:19:49.538Z,23.45
2022-12-18T20:24:53.871Z,24.40
2022-12-18T20:29:59.735Z,19.73
2022-12-18T20:35:04.128Z,18.08
2022-12-18T20:40:10.956Z,19.40
2022-12-18T20:45:18.843Z,15.70
2022-12-18T20:50:25.610Z,18.85
2022-12-18T20:55:30.111Z,17.10
2022-12-18T21:00:37.628Z,15.20
2022-12-18T21:05:42.396Z,13.38
2022-12-18T21:10:46.843Z,13.02
2022-12-18T21:15:55.547Z,12.88
2022-12-18T21:20:59.951Z,12.38
2022-12-18T21:26:17.139Z,11.45
2022-12-18T21:31:23.446Z,10.18
2022-12-18T21:36:27.788Z,9.57
2022-12-18T21:41:49.327Z,9.55
2022-12-18T21:47:04.568Z,8.02
2022-12-18T21:52:16.127Z,7.97
2022-12-18T21:57:20.106Z,7.63
2022-12-18T22:02:26.801Z,7.30
2022-12-18T22:07:31.156Z,7.65
2022-12-18T22:12:44.167Z,7.40
2022-12-18T22:17:58.133Z,8.95
2022-12-18T22:23:06.263Z,7.25
2022-12-18T22:28:28.869Z,7.47
2022-12-18T22:33:34.883Z,7.03
2022-12-18T22:38:38.884Z,8.48
2022-12-18T22:43:42.888Z,7.70
2022-12-18T22:48:48.270Z,7.63
2022-12-18T22:53:52.185Z,8.65
2022-12-18T22:58:56.162Z,7.22
2022-12-18T23:04:04.904Z,9.52
2022-12-18T23:09:14.629Z,7.90
2022-12-18T23:14:18.581Z,7.65
2022-12-18T23:19:24.691Z,8.10
2022-12-18T23:24:31.303Z,7.97
2022-12-18T23:29:37.752Z,7.45
2022-12-18T23:34:43.838Z,9.50
2022-12-18T23:39:48.716Z,8.90
2022-12-18T23:44:53.150Z,8.65
2022-12-18T23:49:58.741Z,7.88
2022-12-18T23:55:03.057Z,7.65
